Time;durP1;ratioP1;P1;durP2;ratioP2;P2;SDS_P1;SDS_P2;PMS_P1;PMS_P2;Temp;Humidity;BMP_temperature;BMP_pressure;BME280_temperature;BME280_humidity;BME280_pressure;Samples;Min_cycle;Max_cycle;Signal;HPM_P1;HPM_P2
2022/10/08 00:00:24;;;;;;;;;1.00;1.00;;;;;11.89;66.67;99972.84;5034073;28;8852;-61
2022/10/08 00:02:52;;;;;;;;;3.00;3.00;;;;;11.88;65.99;99970.28;5035097;28;9530;-61
2022/10/08 00:05:20;;;;;;;;;3.75;2.50;;;;;11.90;66.60;99977.19;5035153;28;8844;-60
2022/10/08 00:07:47;;;;;;;;;3.00;3.00;;;;;11.93;66.32;99960.06;5038004;28;8856;-61
2022/10/08 00:10:15;;;;;;;;;4.50;4.00;;;;;11.96;66.27;99958.00;5038368;28;8828;-60
2022/10/08 00:12:43;;;;;;;;;1.00;1.00;;;;;11.99;66.17;99965.72;5038234;28;8840;-61
2022/10/08 00:15:11;;;;;;;;;2.50;2.00;;;;;12.01;66.18;99961.13;5037476;28;8971;-60
2022/10/08 00:17:38;;;;;;;;;3.00;1.50;;;;;12.03;66.30;99956.50;5035644;28;8917;-60
2022/10/08 00:20:06;;;;;;;;;2.50;2.50;;;;;12.03;66.50;99948.50;5036885;28;8851;-61
2022/10/08 00:22:34;;;;;;;;;1.00;1.00;;;;;12.01;66.07;99959.28;5036743;28;8836;-61
2022/10/08 00:25:02;;;;;;;;;3.00;3.00;;;;;11.99;66.64;99958.59;5037008;28;8836;-60
2022/10/08 00:27:30;;;;;;;;;0.75;0.50;;;;;11.98;66.55;99959.56;5037014;28;8856;-61
2022/10/08 00:29:57;;;;;;;;;3.00;3.00;;;;;11.96;66.83;99952.66;5037300;28;8828;-60
2022/10/08 00:32:25;;;;;;;;;2.00;1.25;;;;;11.96;66.84;99952.66;5038006;28;8839;-61
2022/10/08 00:34:53;;;;;;;;;3.75;3.75;;;;;11.98;66.80;99947.19;5038046;28;8870;-61
2022/10/08 00:37:21;;;;;;;;;3.00;3.00;;;;;11.99;67.12;99947.06;5038283;28;8886;-60
2022/10/08 00:39:48;;;;;;;;;2.50;1.00;;;;;12.02;67.28;99947.63;5037794;28;8856;-61
2022/10/08 00:42:16;;;;;;;;;0.50;0.50;;;;;12.04;67.26;99939.50;5037968;28;8855;-61
2022/10/08 00:44:44;;;;;;;;;2.50;2.00;;;;;12.03;67.17;99946.69;5037891;28;8923;-61
2022/10/08 00:47:13;;;;;;;;;3.00;1.00;;;;;12.04;67.45;99950.19;5037935;28;8839;-60
2022/10/08 00:49:41;;;;;;;;;0.75;0.75;;;;;12.04;67.02;99947.50;5037651;28;8909;-61
2022/10/08 00:52:08;;;;;;;;;1.00;1.00;;;;;12.05;67.29;99952.72;5037854;28;8884;-61
2022/10/08 00:54:36;;;;;;;;;3.00;3.00;;;;;12.07;67.34;99949.94;5037754;28;8851;-60
2022/10/08 00:57:05;;;;;;;;;2.50;2.50;;;;;12.06;66.90;99943.75;5037604;28;8839;-61
2022/10/08 00:59:32;;;;;;;;;3.50;3.00;;;;;12.07;67.25;99948.09;5037006;28;8836;-61
2022/10/08 01:02:00;;;;;;;;;1.00;1.00;;;;;12.09;67.47;99947.97;5037530;28;8902;-61
2022/10/08 01:04:29;;;;;;;;;2.00;2.00;;;;;12.08;67.21;99940.94;5037696;28;8840;-61
2022/10/08 01:06:56;;;;;;;;;3.75;3.00;;;;;12.07;67.38;99944.59;5037226;28;8882;-60
2022/10/08 01:09:24;;;;;;;;;3.00;3.00;;;;;12.04;67.63;99942.19;5037126;28;8840;-61
2022/10/08 01:11:51;;;;;;;;;3.00;2.50;;;;;12.01;67.46;99950.47;5037037;28;8823;-61
2022/10/08 01:14:20;;;;;;;;;0.50;0.50;;;;;11.97;67.58;99953.53;5037388;28;9546;-60
2022/10/08 01:16:48;;;;;;;;;1.00;1.00;;;;;11.95;67.90;99950.97;5035670;28;8876;-61
2022/10/08 01:19:15;;;;;;;;;2.00;2.00;;;;;11.92;67.68;99951.25;5036678;28;8911;-61
2022/10/08 01:21:43;;;;;;;;;2.50;2.50;;;;;11.91;67.81;99946.03;5037309;28;8844;-60
2022/10/08 01:24:10;;;;;;;;;1.00;1.00;;;;;11.87;67.71;99956.13;5037341;28;8848;-61
2022/10/08 01:26:40;;;;;;;;;3.25;2.50;;;;;11.84;68.29;99945.69;5036881;28;8939;-60
2022/10/08 01:29:08;;;;;;;;;2.00;2.00;;;;;11.81;68.14;99948.63;5036816;28;8836;-61
2022/10/08 01:31:36;;;;;;;;;1.00;1.00;;;;;11.81;68.19;99939.75;5037436;28;8858;-60
2022/10/08 01:34:03;;;;;;;;;2.00;2.00;;;;;11.81;68.68;99940.63;5037152;28;8824;-61
2022/10/08 01:36:31;;;;;;;;;2.00;2.00;;;;;11.83;68.64;99946.66;5036989;28;9498;-60
2022/10/08 01:38:58;;;;;;;;;3.00;1.50;;;;;11.84;68.51;99936.84;5037111;28;8820;-61
2022/10/08 01:41:28;;;;;;;;;2.50;1.00;;;;;11.85;68.68;99950.06;5037277;28;8823;-60
2022/10/08 01:43:55;;;;;;;;;3.00;3.00;;;;;11.84;68.79;99942.19;5037027;28;8820;-61
2022/10/08 01:46:23;;;;;;;;;1.00;1.00;;;;;11.82;68.55;99941.47;5037020;28;8847;-60
2022/10/08 01:48:50;;;;;;;;;2.50;2.50;;;;;11.81;68.78;99942.44;5036995;28;8852;-61
2022/10/08 01:51:18;;;;;;;;;3.00;1.00;;;;;11.79;68.95;99939.91;5036427;28;8828;-61
2022/10/08 01:53:46;;;;;;;;;3.00;3.00;;;;;11.77;68.89;99933.88;5037199;28;8922;-61
2022/10/08 01:56:13;;;;;;;;;1.00;1.00;;;;;11.75;69.25;99932.31;5037006;28;8856;-61
2022/10/08 01:58:41;;;;;;;;;2.75;2.75;;;;;11.73;69.21;99932.41;5036673;28;8828;-60
2022/10/08 02:01:09;;;;;;;;;2.50;2.50;;;;;11.72;68.96;99936.06;5037005;28;8832;-61
2022/10/08 02:03:36;;;;;;;;;4.00;3.50;;;;;11.68;68.61;99939.94;5036795;28;8835;-60
2022/10/08 02:06:04;;;;;;;;;3.75;3.75;;;;;11.65;69.12;99937.56;5036580;28;8921;-60
2022/10/08 02:08:32;;;;;;;;;3.00;3.00;;;;;11.63;69.07;99934.19;5036734;28;8848;-60
2022/10/08 02:11:00;;;;;;;;;2.00;2.00;;;;;11.62;69.00;99936.97;5036503;28;8844;-61
2022/10/08 02:13:28;;;;;;;;;4.00;3.25;;;;;11.58;68.78;99936.38;5036507;28;8899;-60
2022/10/08 02:15:57;;;;;;;;;2.50;2.50;;;;;11.57;68.69;99934.66;5036463;28;8856;-61
2022/10/08 02:18:24;;;;;;;;;3.75;3.00;;;;;11.58;68.98;99938.19;5036065;28;8907;-61
2022/10/08 02:20:52;;;;;;;;;2.00;1.00;;;;;11.60;68.99;99937.09;5036097;28;9538;-60
2022/10/08 02:23:19;;;;;;;;;1.50;1.50;;;;;11.61;69.14;99935.28;5036113;28;8921;-61
2022/10/08 02:25:47;;;;;;;;;3.00;3.00;;;;;11.62;69.43;99932.50;5036285;28;8831;-61
2022/10/08 02:28:15;;;;;;;;;1.50;1.50;;;;;11.62;68.73;99921.81;5035965;28;9603;-60
2022/10/08 02:30:43;;;;;;;;;3.00;3.00;;;;;11.61;68.67;99922.78;5036680;28;8909;-61
2022/10/08 02:33:10;;;;;;;;;2.00;1.00;;;;;11.60;69.21;99926.41;5036191;28;8901;-61
2022/10/08 02:35:38;;;;;;;;;3.00;3.00;;;;;11.61;68.95;99930.78;5036527;28;9509;-61
2022/10/08 02:38:05;;;;;;;;;3.00;3.00;;;;;11.63;68.76;99923.50;5036133;28;8840;-61
2022/10/08 02:40:33;;;;;;;;;3.00;1.00;;;;;11.65;68.89;99918.88;5036182;28;9529;-60
2022/10/08 02:43:01;;;;;;;;;0.00;0.00;;;;;11.68;69.07;99925.78;5035912;28;8847;-60
2022/10/08 02:45:29;;;;;;;;;3.00;3.00;;;;;11.69;68.34;99916.81;5036105;28;8852;-60
2022/10/08 02:47:56;;;;;;;;;1.75;0.75;;;;;11.73;68.85;99918.22;5035953;28;9520;-61
2022/10/08 02:50:24;;;;;;;;;2.50;2.50;;;;;11.75;68.60;99905.63;5035988;28;8816;-60
2022/10/08 02:52:52;;;;;;;;;1.00;1.00;;;;;11.81;68.67;99907.75;5036088;28;8828;-60
2022/10/08 02:55:19;;;;;;;;;1.00;1.00;;;;;11.85;68.49;99910.03;5036294;28;8937;-59
2022/10/08 02:57:47;;;;;;;;;1.00;1.00;;;;;11.89;68.44;99914.13;5036402;28;8848;-60
2022/10/08 03:00:15;;;;;;;;;1.50;1.00;;;;;11.93;68.81;99915.56;5036536;28;8828;-60
2022/10/08 03:02:42;;;;;;;;;1.00;1.00;;;;;11.96;68.56;99909.97;5036202;28;8828;-59
2022/10/08 03:05:11;;;;;;;;;3.00;3.00;;;;;11.98;68.76;99911.53;5036445;28;8840;-61
2022/10/08 03:07:39;;;;;;;;;2.00;2.00;;;;;12.01;68.43;99911.25;5035673;28;8949;-60
2022/10/08 03:10:07;;;;;;;;;3.25;3.00;;;;;12.04;68.51;99904.81;5036061;28;8839;-61
2022/10/08 03:12:34;;;;;;;;;2.00;2.00;;;;;12.05;68.88;99911.84;5035788;28;8831;-60
2022/10/08 03:15:02;;;;;;;;;3.00;1.50;;;;;12.06;69.30;99910.84;5035915;28;8859;-60
2022/10/08 03:17:31;;;;;;;;;4.00;3.00;;;;;12.06;69.37;99909.03;5035883;28;8863;-59
2022/10/08 03:19:59;;;;;;;;;3.00;1.00;;;;;12.05;69.14;99898.50;5035263;28;8917;-60
2022/10/08 03:22:26;;;;;;;;;3.00;3.00;;;;;12.05;69.30;99907.34;5035544;28;8843;-60
2022/10/08 03:24:54;;;;;;;;;1.50;1.50;;;;;12.05;69.68;99893.16;5035694;28;8844;-61
2022/10/08 03:27:23;;;;;;;;;3.00;1.00;;;;;12.03;69.23;99901.31;5035484;28;8989;-60
2022/10/08 03:29:55;;;;;;;;;4.75;3.25;;;;;12.04;69.72;99894.13;5035519;28;8828;-60
2022/10/08 03:32:23;;;;;;;;;1.00;1.00;;;;;12.04;69.55;99889.66;5035472;28;8823;-61
2022/10/08 03:34:51;;;;;;;;;5.25;5.25;;;;;12.08;69.90;99890.25;5035859;28;8840;-61
2022/10/08 03:37:19;;;;;;;;;1.00;1.00;;;;;12.11;69.47;99898.81;5035758;28;8843;-61
2022/10/08 03:39:46;;;;;;;;;1.50;1.00;;;;;12.14;69.88;99903.03;5035988;28;8832;-61
2022/10/08 03:42:14;;;;;;;;;2.00;1.50;;;;;12.18;69.66;99901.78;5039920;28;8847;-61
2022/10/08 03:44:41;;;;;;;;;0.75;0.75;;;;;12.25;69.82;99914.47;5040047;28;8844;-60
2022/10/08 03:47:09;;;;;;;;;0.00;0.00;;;;;12.35;69.42;99915.38;5039718;28;8816;-61
2022/10/08 03:49:37;;;;;;;;;0.00;0.00;;;;;12.45;69.28;99915.44;5039589;28;8921;-60
2022/10/08 03:52:04;;;;;;;;;1.00;1.00;;;;;12.52;69.42;99921.88;5039485;28;8812;-61
2022/10/08 03:54:32;;;;;;;;;0.75;0.75;;;;;12.60;68.53;99927.44;5039472;28;8917;-60
2022/10/08 03:57:00;;;;;;;;;1.00;1.00;;;;;12.67;68.70;99931.22;5039480;28;8824;-61
2022/10/08 03:59:28;;;;;;;;;1.00;1.00;;;;;12.74;68.80;99935.03;5039296;28;8832;-60
2022/10/08 04:01:55;;;;;;;;;1.00;1.00;;;;;12.80;68.46;99940.72;5039097;28;8839;-60
2022/10/08 04:04:23;;;;;;;;;1.00;1.00;;;;;12.82;68.62;99933.41;5039211;28;8824;-60
2022/10/08 04:06:52;;;;;;;;;1.00;1.00;;;;;12.85;68.09;99932.28;5039617;28;8847;-60
2022/10/08 04:09:19;;;;;;;;;2.00;2.00;;;;;12.79;67.97;99941.69;5039414;28;8832;-61
2022/10/08 04:11:47;;;;;;;;;3.50;3.50;;;;;12.68;68.31;99941.78;5039296;28;8910;-60
2022/10/08 04:14:15;;;;;;;;;2.00;1.50;;;;;12.63;69.13;99932.50;5039051;28;8917;-61
2022/10/08 04:16:42;;;;;;;;;3.50;2.00;;;;;12.62;68.88;99936.16;5039175;28;8937;-60
2022/10/08 04:19:12;;;;;;;;;1.00;1.00;;;;;12.62;68.98;99939.66;5039033;28;8890;-60
2022/10/08 04:21:40;;;;;;;;;1.00;1.00;;;;;12.63;68.56;99946.72;5038649;28;8811;-61
2022/10/08 04:24:07;;;;;;;;;1.00;1.00;;;;;12.65;69.00;99962.59;5038410;28;8839;-60
2022/10/08 04:26:35;;;;;;;;;1.50;1.50;;;;;12.64;68.51;99958.22;5038586;28;8932;-60
2022/10/08 04:29:03;;;;;;;;;1.00;1.00;;;;;12.65;68.87;99959.91;5038519;28;8932;-61
2022/10/08 04:31:31;;;;;;;;;2.50;2.50;;;;;12.60;68.96;99965.66;5038513;28;8832;-61
2022/10/08 04:33:58;;;;;;;;;2.50;2.50;;;;;12.51;69.13;99971.81;5038326;28;8832;-60
2022/10/08 04:36:26;;;;;;;;;1.50;1.00;;;;;12.42;69.20;99966.41;5038742;28;8836;-62
2022/10/08 04:38:53;;;;;;;;;3.00;3.00;;;;;12.35;69.55;99965.25;5038585;28;8827;-61
2022/10/08 04:41:22;;;;;;;;;3.25;3.00;;;;;12.31;69.65;99967.34;5038142;28;8856;-61
2022/10/08 04:43:50;;;;;;;;;1.00;1.00;;;;;12.27;69.80;99978.41;5038832;28;8905;-61
2022/10/08 04:46:17;;;;;;;;;4.00;3.00;;;;;12.21;70.26;99979.81;5038473;28;8852;-61
2022/10/08 04:48:45;;;;;;;;;1.50;1.50;;;;;12.15;70.51;99977.66;5038144;28;8839;-60
2022/10/08 04:51:12;;;;;;;;;3.00;0.75;;;;;12.06;70.22;99978.44;5037678;28;8820;-62
2022/10/08 04:53:40;;;;;;;;;3.00;3.00;;;;;11.98;70.98;99976.56;5038475;28;8819;-61
2022/10/08 04:56:08;;;;;;;;;4.00;4.00;;;;;11.89;71.56;99975.50;5038273;28;8836;-61
2022/10/08 04:58:36;;;;;;;;;7.25;5.00;;;;;11.81;71.87;99969.09;5038236;28;8828;-62
2022/10/08 05:01:03;;;;;;;;;3.00;3.00;;;;;11.74;72.28;99974.13;5037732;28;8897;-60
2022/10/08 05:03:31;;;;;;;;;2.75;2.75;;;;;11.70;72.67;99970.03;5038309;28;8921;-61
2022/10/08 05:05:59;;;;;;;;;5.50;4.00;;;;;11.65;73.07;99971.38;5038198;28;8820;-61
2022/10/08 05:08:27;;;;;;;;;4.00;4.00;;;;;11.62;73.26;99975.16;5038346;28;8927;-60
2022/10/08 05:10:54;;;;;;;;;4.00;4.00;;;;;11.59;73.47;99983.41;5037926;28;8832;-61
2022/10/08 05:13:22;;;;;;;;;1.00;1.00;;;;;11.56;73.74;99983.63;5037889;28;8850;-61
2022/10/08 05:15:49;;;;;;;;;3.50;3.50;;;;;11.55;73.47;99989.94;5038128;28;8851;-61
2022/10/08 05:18:17;;;;;;;;;3.75;3.75;;;;;11.54;73.76;99993.56;5037727;28;8830;-61
2022/10/08 05:20:45;;;;;;;;;6.00;5.00;;;;;11.51;73.59;99988.50;5038002;28;8839;-61
2022/10/08 05:23:13;;;;;;;;;5.50;5.00;;;;;11.51;74.22;99990.34;5037683;28;8812;-61
2022/10/08 05:25:41;;;;;;;;;4.00;4.00;;;;;11.51;73.64;99996.50;5037431;28;8910;-60
2022/10/08 05:28:09;;;;;;;;;4.50;3.00;;;;;11.50;74.25;99994.81;5037481;28;8836;-61
2022/10/08 05:30:36;;;;;;;;;4.25;4.25;;;;;11.50;73.95;100004.63;5036919;28;8824;-61
2022/10/08 05:33:04;;;;;;;;;4.75;3.50;;;;;11.49;73.95;100000.25;5037106;28;8840;-61
2022/10/08 05:35:32;;;;;;;;;6.50;4.00;;;;;11.49;74.21;100003.78;5037156;28;8835;-60
2022/10/08 05:38:00;;;;;;;;;3.25;3.25;;;;;11.48;74.31;100007.44;5037665;28;8832;-60
2022/10/08 05:40:28;;;;;;;;;3.75;3.25;;;;;11.52;73.96;100016.03;5037652;28;9514;-60
2022/10/08 05:42:56;;;;;;;;;6.25;6.00;;;;;11.51;74.15;100011.66;5037463;28;8925;-60
2022/10/08 05:45:24;;;;;;;;;5.50;5.00;;;;;11.51;74.31;100007.16;5036962;28;8929;-60
2022/10/08 05:47:51;;;;;;;;;6.00;6.00;;;;;11.50;74.42;100007.28;5037212;28;8847;-61
2022/10/08 05:50:19;;;;;;;;;3.25;3.25;;;;;11.49;75.45;100017.13;5037202;28;8901;-62
2022/10/08 05:52:47;;;;;;;;;6.00;6.00;;;;;11.45;75.70;100013.00;5036765;28;8921;-61
2022/10/08 05:55:15;;;;;;;;;4.50;4.00;;;;;11.46;75.24;100016.53;5036453;28;8832;-61
2022/10/08 05:57:43;;;;;;;;;6.00;6.00;;;;;11.44;75.46;100023.81;5036522;28;8858;-61
2022/10/08 06:00:11;;;;;;;;;0.50;0.00;;;;;11.43;75.69;100032.75;5036011;28;8909;-62
2022/10/08 06:02:38;;;;;;;;;3.25;3.00;;;;;11.42;75.28;100023.06;5036711;28;8894;-62
2022/10/08 06:05:06;;;;;;;;;3.75;3.25;;;;;11.42;75.59;100039.91;5035986;28;8824;-61
2022/10/08 06:07:34;;;;;;;;;3.75;3.25;;;;;11.43;75.72;100041.63;5036669;28;8838;-61
2022/10/08 06:10:03;;;;;;;;;6.00;6.00;;;;;11.43;75.94;100038.94;5036770;28;8848;-62
2022/10/08 06:12:31;;;;;;;;;7.00;6.00;;;;;11.44;75.99;100042.47;5037271;28;8851;-61
2022/10/08 06:14:58;;;;;;;;;6.00;6.00;;;;;11.44;75.92;100051.31;5036852;28;8918;-62
2022/10/08 06:17:26;;;;;;;;;6.00;4.00;;;;;11.43;75.54;100046.94;5036906;28;8832;-61
2022/10/08 06:19:53;;;;;;;;;5.00;4.50;;;;;11.44;75.64;100061.97;5036426;28;8842;-61
2022/10/08 06:22:22;;;;;;;;;1.00;1.00;;;;;11.44;76.09;100056.63;5036314;28;8835;-61
2022/10/08 06:24:49;;;;;;;;;3.25;3.00;;;;;11.43;75.82;100060.28;5023662;28;8824;-61
2022/10/08 06:27:17;;;;;;;;;4.00;3.50;;;;;11.44;75.99;100067.31;5035720;28;8840;-60
2022/10/08 06:29:44;;;;;;;;;6.00;5.00;;;;;11.45;76.03;100062.81;5036165;28;8868;-61
2022/10/08 06:32:12;;;;;;;;;6.00;6.00;;;;;11.48;75.66;100074.09;5036014;28;8913;-60
2022/10/08 06:34:41;;;;;;;;;6.75;4.00;;;;;11.49;75.61;100082.94;5035929;28;8917;-62
2022/10/08 06:37:09;;;;;;;;;4.00;3.50;;;;;11.49;75.59;100074.91;5035952;28;9834;-60
2022/10/08 06:39:36;;;;;;;;;7.00;6.75;;;;;11.51;75.43;100073.00;5035825;28;8914;-61
2022/10/08 06:42:04;;;;;;;;;3.50;3.50;;;;;11.53;75.66;100074.53;5035567;28;8847;-61
2022/10/08 06:44:32;;;;;;;;;7.00;7.00;;;;;11.55;75.83;100075.28;5035732;28;8852;-60
2022/10/08 06:47:00;;;;;;;;;6.00;5.50;;;;;11.58;75.60;100077.72;5035354;28;8819;-61
2022/10/08 06:49:28;;;;;;;;;3.75;3.75;;;;;11.60;75.23;100083.78;5035025;28;8824;-61
2022/10/08 06:51:55;;;;;;;;;6.00;6.00;;;;;11.63;75.73;100083.56;5034924;28;8836;-61
2022/10/08 06:54:26;;;;;;;;;5.50;3.50;;;;;11.69;75.17;100090.19;5034981;28;9610;-61
2022/10/08 06:56:54;;;;;;;;;5.50;5.00;;;;;11.78;74.81;100097.44;5035281;28;8863;-62
2022/10/08 06:59:22;;;;;;;;;4.00;4.00;;;;;11.84;74.67;100102.28;5035128;28;8860;-62
2022/10/08 07:01:50;;;;;;;;;5.00;5.00;;;;;11.88;74.40;100104.56;5034572;28;8847;-62
2022/10/08 07:04:17;;;;;;;;;5.00;4.00;;;;;11.87;74.43;100112.69;5034444;28;8986;-61
2022/10/08 07:06:45;;;;;;;;;9.00;7.00;;;;;11.84;75.10;100121.78;5034094;28;8856;-61
2022/10/08 07:09:13;;;;;;;;;6.25;6.25;;;;;11.82;75.32;100123.75;5034079;28;8839;-60
2022/10/08 07:11:41;;;;;;;;;6.50;6.00;;;;;11.82;75.05;100123.75;5033872;28;8868;-62
2022/10/08 07:14:08;;;;;;;;;7.50;6.00;;;;;11.82;75.33;100130.91;5034063;28;8828;-61
2022/10/08 07:16:36;;;;;;;;;3.50;3.50;;;;;11.83;75.36;100133.44;5034475;28;8836;-61
2022/10/08 07:19:04;;;;;;;;;5.00;3.75;;;;;11.87;75.06;100139.38;5034543;28;8852;-62
2022/10/08 07:21:32;;;;;;;;;5.50;4.50;;;;;11.92;74.88;100139.84;5035186;28;8849;-61
2022/10/08 07:23:59;;;;;;;;;5.00;5.00;;;;;11.97;75.01;100145.66;5034993;28;8868;-62
2022/10/08 07:26:27;;;;;;;;;6.00;6.00;;;;;12.00;75.36;100141.75;5035064;28;8913;-61
2022/10/08 07:28:55;;;;;;;;;8.50;8.00;;;;;12.06;74.86;100151.06;5035607;28;8839;-61
2022/10/08 07:31:22;;;;;;;;;6.25;6.00;;;;;12.13;74.53;100162.94;5035273;28;9494;-61
2022/10/08 07:33:50;;;;;;;;;3.50;3.25;;;;;12.18;74.81;100161.63;5035089;28;9521;-61
2022/10/08 07:36:18;;;;;;;;;9.75;6.75;;;;;12.23;74.30;100161.22;5034406;28;8847;-61
2022/10/08 07:38:46;;;;;;;;;7.00;5.50;;;;;12.25;74.14;100169.97;5034899;28;8941;-62
2022/10/08 07:41:14;;;;;;;;;7.50;7.00;;;;;12.28;74.26;100170.56;5033885;28;8839;-61
2022/10/08 07:43:42;;;;;;;;;7.50;6.75;;;;;12.30;74.65;100171.25;5033287;28;8840;-61
2022/10/08 07:46:10;;;;;;;;;9.25;7.00;;;;;12.33;74.00;100171.03;5032867;28;8875;-61
2022/10/08 07:48:38;;;;;;;;;10.00;6.25;;;;;12.36;73.96;100175.25;5033063;28;8919;-61
2022/10/08 07:51:06;;;;;;;;;7.00;6.50;;;;;12.40;74.25;100182.03;5033065;28;8856;-61
2022/10/08 07:53:34;;;;;;;;;8.50;7.50;;;;;12.45;74.04;100182.50;5033287;28;9630;-61
2022/10/08 07:56:02;;;;;;;;;7.50;7.00;;;;;12.50;74.16;100189.16;5033900;28;8847;-61
2022/10/08 07:58:29;;;;;;;;;11.50;10.00;;;;;12.57;74.13;100184.13;5033799;28;8871;-60
2022/10/08 08:00:58;;;;;;;;;10.50;9.25;;;;;12.63;73.74;100191.66;5034892;28;8980;-61
2022/10/08 08:03:26;;;;;;;;;10.00;8.50;;;;;12.67;73.80;100193.94;5034854;28;8835;-60
2022/10/08 08:05:54;;;;;;;;;6.00;4.00;;;;;12.71;73.81;100192.72;5033478;28;8974;-60
2022/10/08 08:08:23;;;;;;;;;9.75;9.50;;;;;12.78;73.73;100201.03;5033097;28;8836;-61
2022/10/08 08:10:51;;;;;;;;;11.25;11.25;;;;;12.80;73.44;100201.75;5032613;28;8874;-61
2022/10/08 08:13:19;;;;;;;;;12.00;10.00;;;;;12.83;74.08;100209.53;5030909;28;8909;-60
2022/10/08 08:15:47;;;;;;;;;6.00;4.50;;;;;12.86;73.65;100210.13;5032840;28;8863;-61
2022/10/08 08:18:15;;;;;;;;;12.75;10.00;;;;;12.89;73.54;100211.66;5033276;28;8835;-61
2022/10/08 08:20:42;;;;;;;;;12.50;10.75;;;;;12.92;73.64;100219.44;5032810;28;8832;-61
2022/10/08 08:23:11;;;;;;;;;11.00;11.00;;;;;12.97;73.53;100219.91;5033394;28;9521;-61
2022/10/08 08:25:39;;;;;;;;;9.50;9.50;;;;;13.01;73.06;100222.22;5033134;28;8853;-60
2022/10/08 08:28:07;;;;;;;;;10.50;9.50;;;;;13.07;72.94;100227.00;5035532;28;8844;-62
2022/10/08 08:30:34;;;;;;;;;11.25;10.50;;;;;13.09;73.19;100234.91;5036504;28;8824;-62
2022/10/08 08:33:02;;;;;;;;;8.00;7.00;;;;;13.11;72.70;100232.94;5035824;28;8823;-61
2022/10/08 08:35:30;;;;;;;;;15.50;14.50;;;;;13.14;72.96;100233.53;5036808;28;8838;-60
2022/10/08 08:37:58;;;;;;;;;12.00;12.00;;;;;13.22;73.07;100239.06;5036399;28;8966;-61
2022/10/08 08:40:26;;;;;;;;;13.00;12.50;;;;;13.30;73.12;100241.94;5037035;28;8901;-61
2022/10/08 08:42:54;;;;;;;;;13.00;11.25;;;;;13.40;72.70;100242.00;5037177;28;8848;-61
2022/10/08 08:45:21;;;;;;;;;13.00;12.50;;;;;13.44;72.80;100251.47;5037056;28;8855;-61
2022/10/08 08:48:09;;;;;;;;;18.50;14.50;;;;;13.49;72.40;100257.25;5037117;28;8860;-60
2022/10/08 08:50:37;;;;;;;;;12.00;11.50;;;;;13.52;72.46;100259.69;5037198;28;8925;-61
2022/10/08 08:53:07;;;;;;;;;13.25;12.00;;;;;13.53;72.58;100256.03;5036138;28;8835;-61
2022/10/08 08:55:35;;;;;;;;;12.50;11.75;;;;;13.56;72.05;100250.38;5036109;28;8842;-62
2022/10/08 08:58:03;;;;;;;;;13.75;12.75;;;;;13.69;72.04;100253.69;5035932;28;8908;-61
2022/10/08 09:00:37;;;;;;;;;12.75;11.50;;;;;13.80;71.60;100258.94;5035836;28;8843;-60
2022/10/08 09:03:05;;;;;;;;;11.50;9.00;;;;;13.92;71.23;100257.88;5034232;28;8858;-60
2022/10/08 09:05:33;;;;;;;;;12.75;12.00;;;;;14.08;71.02;100263.56;5034240;28;8830;-61
2022/10/08 09:08:01;;;;;;;;;13.00;12.25;;;;;14.27;70.86;100263.69;5034480;28;8835;-61
2022/10/08 09:10:28;;;;;;;;;10.00;8.50;;;;;14.38;70.65;100264.41;5035073;28;8922;-61
2022/10/08 09:12:56;;;;;;;;;9.75;9.25;;;;;14.39;71.07;100267.91;5035217;28;8847;-61
2022/10/08 09:15:25;;;;;;;;;15.00;13.50;;;;;14.33;71.27;100269.31;5034988;28;9575;-61
2022/10/08 09:17:53;;;;;;;;;12.00;10.00;;;;;14.25;70.85;100269.16;5035036;28;8839;-61
2022/10/08 09:20:22;;;;;;;;;10.25;9.25;;;;;14.15;71.93;100275.44;5035015;28;8870;-60
2022/10/08 09:22:50;;;;;;;;;7.00;6.25;;;;;14.04;71.63;100275.56;5035651;28;8866;-61
2022/10/08 09:25:18;;;;;;;;;13.00;12.00;;;;;13.95;71.76;100287.06;5035565;28;8870;-61
2022/10/08 09:27:47;;;;;;;;;12.00;9.50;;;;;13.90;72.30;100286.63;5035361;28;8877;-61
2022/10/08 09:30:15;;;;;;;;;17.00;13.50;;;;;13.90;72.23;100283.94;5034493;28;8852;-61
2022/10/08 09:32:43;;;;;;;;;4.50;3.25;;;;;14.10;71.94;100294.59;5034310;28;8857;-60
2022/10/08 09:35:11;;;;;;;;;14.75;13.25;;;;;14.36;71.08;100293.13;5035460;28;8831;-60
2022/10/08 09:37:39;;;;;;;;;12.50;10.25;;;;;14.60;70.30;100296.31;5034332;28;8882;-63
2022/10/08 09:40:07;;;;;;;;;12.00;10.00;;;;;14.87;70.20;100301.00;5032767;28;8870;-61
2022/10/08 09:42:35;;;;;;;;;10.50;10.50;;;;;15.13;69.43;100299.44;5032397;28;8978;-61
2022/10/08 09:45:04;;;;;;;;;13.75;10.25;;;;;15.17;69.23;100293.66;5032797;28;8870;-60
2022/10/08 09:47:31;;;;;;;;;13.00;12.25;;;;;15.06;69.54;100301.00;5033365;28;8844;-61
2022/10/08 09:50:01;;;;;;;;;6.50;6.25;;;;;14.91;69.79;100307.75;5033375;28;8844;-61
2022/10/08 09:52:30;;;;;;;;;14.50;12.00;;;;;14.77;70.08;100317.06;5032878;28;8851;-60
2022/10/08 09:54:57;;;;;;;;;12.00;11.50;;;;;14.66;70.73;100316.34;5033691;28;8836;-61
2022/10/08 09:57:25;;;;;;;;;15.50;13.25;;;;;14.72;70.45;100318.50;5033025;28;8852;-61
2022/10/08 09:59:53;;;;;;;;;12.25;8.50;;;;;14.78;70.11;100308.03;5033833;28;8850;-61
2022/10/08 10:02:21;;;;;;;;;12.50;12.50;;;;;14.96;69.72;100318.94;5033737;28;8901;-61
2022/10/08 10:04:49;;;;;;;;;12.25;12.00;;;;;15.21;69.63;100324.59;5034334;28;8831;-61
2022/10/08 10:07:17;;;;;;;;;12.50;10.50;;;;;15.66;68.48;100327.50;5034717;28;8855;-60
2022/10/08 10:09:45;;;;;;;;;9.00;8.00;;;;;16.06;68.38;100315.50;5035128;28;9630;-60
2022/10/08 10:12:13;;;;;;;;;12.75;11.50;;;;;16.16;67.58;100323.53;5034969;28;9571;-61
2022/10/08 10:14:41;;;;;;;;;10.00;10.00;;;;;16.31;67.68;100321.06;5034710;28;8860;-61
2022/10/08 10:17:10;;;;;;;;;14.50;12.75;;;;;16.50;67.00;100312.91;5034240;28;8827;-61
2022/10/08 10:19:38;;;;;;;;;6.00;6.00;;;;;16.76;66.86;100313.88;5032816;28;8974;-60
2022/10/08 10:22:05;;;;;;;;;10.00;9.20;;;;;17.06;66.49;100313.53;5033331;28;8843;-61
2022/10/08 10:24:33;;;;;;;;;9.80;9.80;;;;;17.46;65.26;100310.38;5033708;28;8903;-62
2022/10/08 10:27:02;;;;;;;;;7.20;6.20;;;;;17.85;65.07;100309.78;5033868;28;8878;-62
2022/10/08 10:29:30;;;;;;;;;7.00;7.00;;;;;18.13;64.41;100305.06;5034358;28;8836;-61
2022/10/08 10:31:57;;;;;;;;;9.00;7.00;;;;;17.98;64.21;100299.41;5033231;28;8868;-62
2022/10/08 10:34:25;;;;;;;;;8.20;8.20;;;;;17.68;65.01;100307.16;5033163;28;8836;-61
2022/10/08 10:36:53;;;;;;;;;6.40;6.00;;;;;17.37;65.96;100312.13;5032103;28;8843;-61
2022/10/08 10:39:21;;;;;;;;;9.00;7.40;;;;;17.10;66.39;100327.50;5033076;28;8840;-61
2022/10/08 10:41:49;;;;;;;;;9.20;7.00;;;;;16.69;66.49;100317.31;5033814;28;9537;-61
2022/10/08 10:44:17;;;;;;;;;9.00;9.00;;;;;16.35;67.43;100319.75;5032731;28;8861;-61
2022/10/08 10:46:45;;;;;;;;;5.20;5.20;;;;;16.03;67.89;100336.44;5032647;28;8877;-61
2022/10/08 10:49:13;;;;;;;;;9.00;9.00;;;;;15.67;69.29;100350.69;5033097;28;8974;-61
2022/10/08 10:51:41;;;;;;;;;8.60;8.60;;;;;15.24;69.42;100353.81;5033605;28;8924;-62
2022/10/08 10:54:09;;;;;;;;;9.00;7.00;;;;;14.93;70.64;100341.50;5033741;28;8855;-61
2022/10/08 10:56:37;;;;;;;;;5.50;5.50;;;;;14.76;70.47;100342.19;5033336;28;8872;-61
2022/10/08 10:59:05;;;;;;;;;6.00;6.00;;;;;14.67;70.93;100343.03;5032649;28;8848;-61
2022/10/08 11:01:33;;;;;;;;;7.00;7.00;;;;;14.58;70.94;100338.47;5032344;28;8844;-61
2022/10/08 11:04:01;;;;;;;;;7.00;7.00;;;;;14.54;71.37;100346.94;5031883;28;8914;-61
2022/10/08 11:06:29;;;;;;;;;6.50;5.50;;;;;14.50;70.87;100348.22;5032182;28;8866;-61
2022/10/08 11:08:57;;;;;;;;;8.50;7.00;;;;;14.50;70.33;100348.22;5031628;28;8856;-61
2022/10/08 11:11:25;;;;;;;;;10.00;9.25;;;;;14.51;70.84;100356.09;5031486;28;8851;-61
2022/10/08 11:13:59;;;;;;;;;9.75;8.00;;;;;14.56;70.04;100350.34;5031798;28;8890;-61
2022/10/08 11:16:27;;;;;;;;;4.50;3.50;;;;;14.61;70.35;100356.97;5031911;28;8881;-61
2022/10/08 11:18:55;;;;;;;;;7.75;6.00;;;;;14.75;69.51;100351.22;5031810;28;8831;-60
2022/10/08 11:21:23;;;;;;;;;7.50;7.00;;;;;15.28;68.68;100357.06;5031480;28;8840;-60
2022/10/08 11:23:51;;;;;;;;;4.00;4.00;;;;;16.12;66.41;100333.75;5031617;28;8835;-62
2022/10/08 11:26:19;;;;;;;;;4.00;3.00;;;;;16.36;65.93;100340.28;5032120;28;9557;-61
2022/10/08 11:28:50;;;;;;;;;3.60;3.60;;;;;16.52;65.08;100334.28;5031989;28;9876;-61
2022/10/08 11:31:18;;;;;;;;;3.75;3.50;;;;;17.42;63.48;100330.53;5032175;28;8835;-61
2022/10/08 11:33:46;;;;;;;;;4.40;4.40;;;;;18.11;61.68;100326.78;5031210;28;8832;-60
2022/10/08 11:36:14;;;;;;;;;2.20;1.00;;;;;18.90;59.82;100330.81;5031184;28;8856;-64